»·PEaware :: SWA463 KEUG-KOAK

SWA463 :: KEUG-KOAK

FLIGHT INFORMATION

Flight Status: Arrived
Operator:
Southwest Airlines
More flights by this operator :: More flights under this callsign
Pilot: Steve F. (26981)
Aircraft: BOEING 737-900
(B739)
More flights by this aircraft type
Origin: KEUG Mahlon Sweet
United States
Destination: KOAK Metro Oakland Intl
United States
More flights between these airports :: More routes between these airports
Route: EUG1 RBG HUPTU SPAMY WNDSR2
File this flight plan on PilotEdge
Remarks:
Altitude:
(Current/Filed)
35,000ft
Speed:
(Current/Filed)
430kts
Departed: 24-Jun-23 02:35 PM
Arrived: 24-Jun-23 03:45 PM
Distance/Time
Traveled:
387nm/1:10
Distance/Time
To Go:
Arrived

Flight Plot

Page will automatically refresh every two minutes.

Flight plan parsing failed; only flown route is shown


Map Options




Map Legend


Flown Route
Filed Route
Departure Airport
Arrival Airport
Navaid (VOR, NDB)
Fix

Horizontal Profiles

Position Reports

Time Latitude Longitude Heading Altitude Ground
Speed
24-Jun-23 14:12 44.119169 -123.213704 120 377ft 0kts
24-Jun-23 14:13 44.119169 -123.213704 120 377ft 0kts
24-Jun-23 14:14 44.119169 -123.213704 120 377ft 0kts
24-Jun-23 14:15 44.119169 -123.213704 120 377ft 0kts
24-Jun-23 14:16 44.119169 -123.213704 120 377ft 0kts
24-Jun-23 14:17 44.119169 -123.213704 120 377ft 0kts
24-Jun-23 14:18 44.119169 -123.213704 120 377ft 0kts
24-Jun-23 14:19 44.119169 -123.213704 120 377ft 0kts
24-Jun-23 14:20 44.119169 -123.213704 120 377ft 0kts
24-Jun-23 14:21 44.119169 -123.213704 120 377ft 0kts
24-Jun-23 14:22 44.119169 -123.213704 120 377ft 0kts
24-Jun-23 14:23 44.119169 -123.213704 120 377ft 0kts
24-Jun-23 14:24 44.119169 -123.213704 120 377ft 0kts
24-Jun-23 14:25 44.119402 -123.214377 72 377ft 1kts
24-Jun-23 14:26 44.119378 -123.214458 61 377ft 0kts
24-Jun-23 14:27 44.119378 -123.214458 61 377ft 0kts
24-Jun-23 14:28 44.119259 -123.214765 61 377ft 0kts
24-Jun-23 14:29 44.119294 -123.214724 25 377ft 1kts
24-Jun-23 14:30 44.119284 -123.217075 199 377ft 12kts
24-Jun-23 14:31 44.115276 -123.217097 179 377ft 15kts
24-Jun-23 14:32 44.113656 -123.217436 287 377ft 6kts
24-Jun-23 14:33 44.114148 -123.218806 359 377ft 6kts
24-Jun-23 14:34 44.149961 -123.219197 0 1609ft 191kts
24-Jun-23 14:35 44.213348 -123.219979 350 4453ft 252kts
24-Jun-23 14:36 44.239828 -123.299454 238 7926ft 274kts
24-Jun-23 14:37 44.167061 -123.327550 180 10870ft 293kts
24-Jun-23 14:38 44.080111 -123.329149 182 12922ft 345kts
24-Jun-23 14:39 43.976442 -123.332011 181 14954ft 384kts
24-Jun-23 14:40 43.867452 -123.334884 182 17519ft 400kts
24-Jun-23 14:41 43.754186 -123.337809 182 19820ft 414kts
24-Jun-23 14:42 43.637425 -123.340805 182 21799ft 427kts
24-Jun-23 14:43 43.517277 -123.343835 182 23534ft 437kts
24-Jun-23 14:44 43.394287 -123.346942 182 25041ft 446kts
24-Jun-23 14:45 43.269377 -123.350070 182 26368ft 452kts
24-Jun-23 14:46 43.142656 -123.346020 174 27513ft 460kts
24-Jun-23 14:47 43.015035 -123.323313 174 28674ft 461kts
24-Jun-23 14:48 42.888493 -123.301282 174 30008ft 456kts
24-Jun-23 14:49 42.762837 -123.279418 174 31184ft 452kts
24-Jun-23 14:50 42.638421 -123.257961 175 32201ft 450kts
24-Jun-23 14:51 42.514902 -123.236769 175 33149ft 446kts
24-Jun-23 14:52 42.392009 -123.215784 175 33990ft 444kts
24-Jun-23 14:53 42.269399 -123.194903 175 34653ft 444kts
24-Jun-23 14:54 42.146681 -123.174110 175 35046ft 446kts
24-Jun-23 14:55 42.024057 -123.153406 175 35062ft 443kts
24-Jun-23 14:56 41.901833 -123.132851 175 35071ft 441kts
24-Jun-23 14:57 41.779564 -123.112369 175 35077ft 442kts
24-Jun-23 14:58 41.657953 -123.092071 175 35078ft 442kts
24-Jun-23 14:59 41.535753 -123.071754 175 35077ft 442kts
24-Jun-23 15:00 41.413731 -123.051545 175 35074ft 442kts
24-Jun-23 15:01 41.292092 -123.031475 175 35070ft 441kts
24-Jun-23 15:02 41.170182 -123.011430 175 35070ft 441kts
24-Jun-23 15:03 41.048569 -122.991519 175 35060ft 440kts
24-Jun-23 15:04 40.926897 -122.971667 175 35050ft 441kts
24-Jun-23 15:05 40.805208 -122.951883 175 35050ft 441kts
24-Jun-23 15:06 40.683603 -122.932188 175 35051ft 440kts
24-Jun-23 15:07 40.562033 -122.912571 175 35053ft 440kts
24-Jun-23 15:08 40.440431 -122.893023 175 35054ft 440kts
24-Jun-23 15:09 40.318563 -122.873501 175 35030ft 440kts
24-Jun-23 15:10 40.197239 -122.854135 175 35027ft 440kts
24-Jun-23 15:11 40.075516 -122.834777 175 35040ft 440kts
24-Jun-23 15:12 39.954241 -122.815558 175 35040ft 440kts
24-Jun-23 15:13 39.832844 -122.796388 176 35041ft 440kts
24-Jun-23 15:14 39.710834 -122.777138 175 33429ft 442kts
24-Jun-23 15:15 39.587821 -122.757886 175 31303ft 448kts
24-Jun-23 15:16 39.468987 -122.727997 162 29190ft 425kts
24-Jun-23 15:17 39.361288 -122.672972 160 27087ft 407kts
24-Jun-23 15:18 39.257770 -122.620136 160 25192ft 396kts
24-Jun-23 15:19 39.153785 -122.583811 175 23410ft 382kts
24-Jun-23 15:20 39.048977 -122.569548 175 21880ft 374kts
24-Jun-23 15:21 38.948091 -122.545417 170 20368ft 366kts
24-Jun-23 15:22 38.849257 -122.520437 170 18804ft 357kts
24-Jun-23 15:23 38.752720 -122.496392 170 17405ft 350kts
24-Jun-23 15:24 38.658009 -122.473914 173 16002ft 338kts
24-Jun-23 15:25 38.567955 -122.461187 173 14599ft 316kts
24-Jun-23 15:26 38.482820 -122.448326 173 13193ft 299kts
24-Jun-23 15:27 38.402261 -122.436110 173 11791ft 286kts
24-Jun-23 15:28 38.323408 -122.424174 173 10500ft 284kts
24-Jun-23 15:29 38.245242 -122.412350 173 9302ft 283kts
24-Jun-23 15:30 38.167558 -122.400430 172 8462ft 280kts
24-Jun-23 15:31 38.090555 -122.388650 173 7713ft 274kts
24-Jun-23 15:32 38.017126 -122.372664 154 6955ft 266kts
24-Jun-23 15:33 37.957478 -122.318555 142 6212ft 263kts
24-Jun-23 15:34 37.899628 -122.262862 143 5457ft 259kts
24-Jun-23 15:35 37.842897 -122.208927 144 4958ft 239kts
24-Jun-23 15:36 37.792357 -122.160947 142 4988ft 224kts
24-Jun-23 15:37 37.746869 -122.109028 143 4859ft 204kts
24-Jun-23 15:38 37.702765 -122.065346 143 3486ft 200kts
24-Jun-23 15:39 37.655794 -122.046834 210 2976ft 193kts
24-Jun-23 15:40 37.613222 -122.088222 251 2659ft 200kts
24-Jun-23 15:41 37.645509 -122.130045 315 2707ft 162kts
24-Jun-23 15:42 37.672147 -122.170205 307 1213ft 145kts
24-Jun-23 15:44 37.697404 -122.208097 306 139ft 140kts
24-Jun-23 15:45 37.712518 -122.230517 331 14ft 22kts
24-Jun-23 15:46 37.715067 -122.230662 130 14ft 17kts
24-Jun-23 15:47 37.712330 -122.225063 49 14ft 16kts
24-Jun-23 15:48 37.711436 -122.219686 130 14ft 21kts
24-Jun-23 15:49 37.709936 -122.215217 23 14ft 16kts
24-Jun-23 15:50 37.711142 -122.214772 336 14ft 0kts
24-Jun-23 15:51 37.711142 -122.214772 336 14ft 0kts
24-Jun-23 15:52 37.711142 -122.214772 336 14ft 0kts
24-Jun-23 15:53 37.711142 -122.214772 336 14ft 0kts
24-Jun-23 15:54 37.711142 -122.214772 336 14ft 0kts
24-Jun-23 15:55 37.711142 -122.214772 336 14ft 0kts
24-Jun-23 15:56 37.711142 -122.214772 336 14ft 0kts
24-Jun-23 15:57 37.711142 -122.214772 336 14ft 0kts
24-Jun-23 15:58 37.711142 -122.214772 336 14ft 0kts
24-Jun-23 15:59 37.711142 -122.214772 336 14ft 0kts
24-Jun-23 16:00 37.711142 -122.214772 336 14ft 0kts

Navigation Log

Ident Type
Flight plan parsing failed, navigation log unavailable